Time;durP1;ratioP1;P1;durP2;ratioP2;P2;SDS_P1;SDS_P2;PMS_P1;PMS_P2;Temp;Humidity;BMP_temperature;BMP_pressure;BME280_temperature;BME280_humidity;BME280_pressure;Samples;Min_cycle;Max_cycle;Signal;HPM_P1;HPM_P2
2022/05/15 00:00:41;;;;;;;4.97;4.77;;;;;;;19.30;94.45;99371.31;5013519;28;20340;-65
2022/05/15 00:03:12;;;;;;;4.60;4.30;;;;;;;19.20;94.71;99364.22;5021251;28;20204;-65
2022/05/15 00:05:40;;;;;;;4.83;4.53;;;;;;;19.20;95.72;99372.00;5017325;28;20565;-65
2022/05/15 00:08:08;;;;;;;4.43;4.23;;;;;;;19.19;95.59;99378.16;5023450;28;20213;-65
2022/05/15 00:10:35;;;;;;;4.93;4.53;;;;;;;19.25;95.06;99373.41;5025531;28;20240;-65
2022/05/15 00:13:05;;;;;;;4.87;4.57;;;;;;;19.31;94.82;99377.34;5012324;28;20209;-65
2022/05/15 00:15:33;;;;;;;5.00;4.80;;;;;;;19.27;94.18;99363.72;5012787;28;20206;-65
2022/05/15 00:18:00;;;;;;;4.83;4.63;;;;;;;19.46;93.45;99376.34;5014673;28;20193;-65
2022/05/15 00:20:27;;;;;;;4.83;4.53;;;;;;;19.48;93.27;99379.72;5025557;28;20208;-65
2022/05/15 00:22:54;;;;;;;5.03;4.83;;;;;;;19.48;93.19;99374.50;5025401;28;20213;-65
2022/05/15 00:25:21;;;;;;;5.40;5.10;;;;;;;19.46;93.24;99370.31;5024347;28;20705;-65
2022/05/15 00:27:48;;;;;;;5.03;4.83;;;;;;;19.49;93.87;99376.16;5026606;28;20584;-65
2022/05/15 00:30:19;;;;;;;5.20;4.70;;;;;;;19.44;94.13;99378.25;5014445;28;21045;-65
2022/05/15 00:32:46;;;;;;;4.70;4.50;;;;;;;19.42;94.36;99377.50;5016562;28;20209;-65
2022/05/15 00:35:13;;;;;;;5.37;5.17;;;;;;;19.40;94.84;99381.97;5018067;28;20200;-65
2022/05/15 00:37:40;;;;;;;5.23;4.93;;;;;;;19.37;95.18;99382.16;5015243;28;20304;-65
2022/05/15 00:40:09;;;;;;;5.67;5.27;;;;;;;19.31;95.20;99372.16;5014289;28;20586;-65
2022/05/15 00:42:36;;;;;;;5.70;5.40;;;;;;;19.33;94.93;99380.66;5013989;28;20237;-65
2022/05/15 00:45:05;;;;;;;5.47;5.27;;;;;;;19.34;94.75;99385.78;5016898;28;20598;-65
2022/05/15 00:47:33;;;;;;;5.10;4.70;;;;;;;19.37;94.61;99387.34;5013755;28;20198;-65
2022/05/15 00:50:02;;;;;;;5.73;5.43;;;;;;;19.36;94.72;99385.66;5015874;28;20681;-65
2022/05/15 00:52:34;;;;;;;5.53;5.23;;;;;;;19.42;94.30;99393.09;5015967;28;20209;-65
2022/05/15 00:55:07;;;;;;;5.47;5.17;;;;;;;19.40;94.06;99389.78;5017390;28;20206;-65
2022/05/15 00:57:38;;;;;;;6.57;5.73;;;;;;;19.42;94.12;99394.88;5018563;28;20209;-65
2022/05/15 01:00:10;;;;;;;5.50;5.10;;;;;;;19.45;93.40;99394.69;5013331;28;20198;-65
2022/05/15 01:02:42;;;;;;;6.33;5.83;;;;;;;19.40;94.36;99379.38;5014157;28;20228;-65
2022/05/15 01:05:10;;;;;;;5.93;5.63;;;;;;;19.44;94.14;99383.44;5021456;28;20203;-65
2022/05/15 01:07:37;;;;;;;5.80;5.50;;;;;;;19.37;94.45;99387.34;5017538;28;20206;-65
2022/05/15 01:10:05;;;;;;;5.73;5.43;;;;;;;19.33;94.68;99380.66;5019015;28;20688;-65
2022/05/15 01:12:33;;;;;;;5.83;5.20;;;;;;;19.29;95.06;99384.41;5026625;28;20213;-65
2022/05/15 01:15:00;;;;;;;6.23;5.83;;;;;;;19.15;94.98;99353.31;5015912;28;20198;-65
2022/05/15 01:17:27;;;;;;;6.10;5.80;;;;;;;19.31;94.60;99377.34;5023537;28;20194;-65
2022/05/15 01:20:05;;;;;;;5.50;5.20;;;;;;;19.17;94.30;99354.03;5012369;28;20709;-65
2022/05/15 01:22:33;;;;;;;5.53;5.23;;;;;;;19.13;94.81;99363.78;5017791;28;20217;-65
2022/05/15 01:25:01;;;;;;;4.80;4.43;;;;;;;19.19;94.63;99372.97;5015728;28;20217;-65
2022/05/15 01:27:28;;;;;;;6.43;5.10;;;;;;;19.18;94.70;99373.91;5013091;28;20202;-65
2022/05/15 01:29:55;;;;;;;5.70;5.40;;;;;;;19.18;94.49;99376.50;5018726;28;20198;-65
2022/05/15 01:32:22;;;;;;;6.07;5.77;;;;;;;19.15;94.43;99376.69;5014075;28;20202;-65
2022/05/15 01:34:49;;;;;;;5.27;4.97;;;;;;;19.17;94.16;99377.41;5016414;28;20213;-65
2022/05/15 01:37:16;;;;;;;4.77;4.57;;;;;;;19.10;94.16;99368.34;5020326;28;20201;-65
2022/05/15 01:39:44;;;;;;;5.37;5.03;;;;;;;19.13;94.14;99379.38;5013470;28;20228;-65
2022/05/15 01:42:12;;;;;;;6.07;5.67;;;;;;;19.13;93.99;99383.75;5015497;28;20229;-65
2022/05/15 01:44:38;;;;;;;5.90;5.60;;;;;;;19.07;94.22;99378.94;5019562;28;20205;-65
2022/05/15 01:47:06;;;;;;;5.27;5.00;;;;;;;19.09;94.38;99384.91;5023380;28;20198;-65
2022/05/15 01:49:33;;;;;;;4.87;4.50;;;;;;;19.07;93.75;99382.38;5017411;28;20654;-65
2022/05/15 01:52:00;;;;;;;5.27;5.07;;;;;;;19.08;94.34;99391.84;5021037;28;20217;-65
2022/05/15 01:54:27;;;;;;;5.10;4.77;;;;;;;19.07;94.26;99392.78;5016177;28;20473;-65
2022/05/15 01:56:55;;;;;;;5.00;4.80;;;;;;;19.10;93.91;99394.34;5019527;28;20232;-65
2022/05/15 01:59:22;;;;;;;5.17;4.87;;;;;;;19.10;93.43;99395.19;5017502;28;20195;-65
2022/05/15 02:01:49;;;;;;;4.73;4.47;;;;;;;19.14;93.50;99395.81;5016662;28;20214;-65
2022/05/15 02:04:16;;;;;;;4.93;4.73;;;;;;;19.17;93.58;99398.22;5011541;28;20202;-65
2022/05/15 02:06:43;;;;;;;5.20;5.00;;;;;;;19.23;92.91;99403.00;5018935;28;20213;-65
2022/05/15 02:09:10;;;;;;;5.30;4.80;;;;;;;19.25;92.80;99404.59;5010011;28;20208;-65
2022/05/15 02:11:38;;;;;;;5.40;5.10;;;;;;;19.26;92.83;99395.00;5019281;28;20689;-65
2022/05/15 02:14:06;;;;;;;5.00;4.80;;;;;;;19.25;92.56;99408.94;5022707;28;20205;-65
2022/05/15 02:16:33;;;;;;;4.67;4.47;;;;;;;19.21;92.71;99404.88;5016048;28;20202;-65
2022/05/15 02:19:00;;;;;;;5.20;4.90;;;;;;;19.18;92.68;99405.09;5018505;28;20212;-65
2022/05/15 02:21:27;;;;;;;5.03;4.77;;;;;;;19.14;92.74;99406.22;5023932;28;20202;-65
2022/05/15 02:23:54;;;;;;;5.60;5.00;;;;;;;19.10;93.03;99399.53;5024294;28;20198;-65
2022/05/15 02:26:21;;;;;;;5.07;4.77;;;;;;;19.05;93.07;99412.00;5020560;28;20213;-65
2022/05/15 02:28:48;;;;;;;4.33;4.17;;;;;;;18.97;93.26;99415.09;5014661;28;20296;-65
2022/05/15 02:31:16;;;;;;;5.30;5.00;;;;;;;18.91;93.60;99405.09;5015254;28;20201;-65
2022/05/15 02:33:43;;;;;;;4.43;4.20;;;;;;;18.88;93.60;99408.72;5016273;28;20218;-65
2022/05/15 02:36:11;;;;;;;5.37;5.10;;;;;;;18.85;93.94;99411.53;5016751;28;20206;-65
2022/05/15 02:38:38;;;;;;;5.03;4.83;;;;;;;18.74;94.25;99408.75;5011361;28;20206;-65
2022/05/15 02:41:05;;;;;;;5.90;5.63;;;;;;;18.75;94.21;99405.25;5014445;28;20202;-65
2022/05/15 02:43:32;;;;;;;5.50;5.20;;;;;;;18.73;94.40;99417.50;5012495;28;20624;-65
2022/05/15 02:45:59;;;;;;;4.60;4.40;;;;;;;18.72;94.05;99421.03;5011789;28;20206;-65
2022/05/15 02:51:12;;;;;;;9.70;5.50;;;;;;;18.72;93.60;99421.03;5020499;28;20333;-65
2022/05/15 02:53:41;;;;;;;5.33;4.83;;;;;;;18.68;94.03;99418.69;5008743;28;20563;-65
2022/05/15 02:56:12;;;;;;;4.83;4.47;;;;;;;18.57;93.88;99411.59;5010959;28;20237;-65
2022/05/15 02:58:39;;;;;;;4.80;4.50;;;;;;;18.62;93.55;99419.91;5018833;28;20200;-65
2022/05/15 03:01:06;;;;;;;4.60;4.30;;;;;;;18.60;92.67;99416.59;5019294;28;20593;-65
2022/05/15 03:03:35;;;;;;;4.47;4.27;;;;;;;18.60;92.26;99419.19;5020010;28;20209;-65
2022/05/15 03:06:03;;;;;;;4.47;4.17;;;;;;;18.59;91.51;99420.13;5022472;28;20585;-65
2022/05/15 03:08:32;;;;;;;4.17;3.97;;;;;;;18.57;90.89;99422.00;5018626;28;20201;-65
2022/05/15 03:10:59;;;;;;;4.50;4.30;;;;;;;18.53;90.67;99415.31;5013641;28;20697;-65
2022/05/15 03:13:25;;;;;;;4.83;4.63;;;;;;;18.52;90.67;99424.03;5024709;28;20193;-65
2022/05/15 03:15:52;;;;;;;5.10;4.70;;;;;;;18.55;90.45;99418.63;5027195;28;20255;-65
2022/05/15 03:18:20;;;;;;;5.07;4.77;;;;;;;18.60;90.11;99424.41;5014374;28;20194;-65
2022/05/15 03:20:48;;;;;;;4.67;4.27;;;;;;;18.59;89.78;99425.31;5016013;28;20563;-65
2022/05/15 03:23:15;;;;;;;4.30;4.10;;;;;;;18.64;89.85;99433.63;5013955;28;20217;-65
2022/05/15 03:25:42;;;;;;;5.33;5.03;;;;;;;18.68;89.70;99435.13;5021993;28;20212;-65
2022/05/15 03:28:10;;;;;;;4.80;4.50;;;;;;;18.73;89.25;99432.25;5015154;28;20202;-65
2022/05/15 03:30:37;;;;;;;4.17;3.77;;;;;;;18.79;88.97;99439.66;5011038;28;20202;-65
2022/05/15 03:33:04;;;;;;;4.20;3.97;;;;;;;18.83;88.35;99441.97;5019358;28;20197;-65
2022/05/15 03:35:31;;;;;;;3.90;3.70;;;;;;;18.88;88.26;99445.09;5012623;28;20205;-65
2022/05/15 03:38:00;;;;;;;4.50;4.20;;;;;;;18.95;87.75;99453.34;5015461;28;20571;-65
2022/05/15 03:40:28;;;;;;;4.10;3.90;;;;;;;19.02;87.66;99453.78;5012213;28;20249;-65
2022/05/15 03:42:56;;;;;;;3.83;3.63;;;;;;;19.16;87.48;99464.13;5017911;28;20696;-65
2022/05/15 03:45:23;;;;;;;5.13;4.73;;;;;;;19.28;87.25;99461.56;5023197;28;20206;-65
2022/05/15 03:47:52;;;;;;;3.87;3.67;;;;;;;19.43;86.31;99467.56;5020217;28;20194;-65
2022/05/15 03:50:20;;;;;;;4.17;3.87;;;;;;;19.61;85.61;99475.94;5016009;28;20198;-65
2022/05/15 03:52:47;;;;;;;4.60;4.30;;;;;;;19.74;84.05;99477.59;5013915;28;20198;-65
2022/05/15 03:55:16;;;;;;;5.30;4.80;;;;;;;19.80;84.47;99476.38;5014681;28;20217;-65
2022/05/15 03:57:43;;;;;;;5.10;4.70;;;;;;;19.85;84.15;99477.75;5016990;28;20202;-65
2022/05/15 04:00:13;;;;;;;4.17;3.97;;;;;;;19.99;84.99;99478.59;5010329;28;20221;-65
2022/05/15 04:02:40;;;;;;;4.67;4.40;;;;;;;20.12;85.54;99479.41;5017864;28;20621;-65
2022/05/15 04:05:09;;;;;;;4.53;4.23;;;;;;;20.25;85.05;99486.31;5023372;28;20208;-65
2022/05/15 04:07:43;;;;;;;5.20;4.80;;;;;;;20.45;84.94;99482.34;5021658;28;20206;-65
2022/05/15 04:10:11;;;;;;;4.83;4.43;;;;;;;20.65;83.28;99478.34;5018002;28;20206;-65
2022/05/15 04:12:39;;;;;;;4.80;4.60;;;;;;;20.84;82.10;99474.34;5023193;28;20259;-65
2022/05/15 04:15:07;;;;;;;3.77;3.67;;;;;;;21.05;81.65;99476.34;5027141;28;20231;-65
2022/05/15 04:17:34;;;;;;;4.07;3.87;;;;;;;21.23;80.34;99483.69;5030368;28;20197;-65
2022/05/15 04:20:03;;;;;;;3.47;3.27;;;;;;;21.49;78.26;99483.59;5030578;28;20204;-65
2022/05/15 04:22:30;;;;;;;4.40;4.20;;;;;;;21.71;77.71;99487.09;5023767;28;20219;-65
2022/05/15 04:24:57;;;;;;;3.93;3.73;;;;;;;21.90;77.26;99484.84;5030627;28;20198;-65
2022/05/15 04:27:24;;;;;;;3.83;3.63;;;;;;;22.14;77.20;99492.56;5024372;28;20227;-65
2022/05/15 04:29:53;;;;;;;3.57;3.37;;;;;;;22.39;77.04;99486.31;5011448;28;20217;-65
2022/05/15 04:32:20;;;;;;;4.40;3.97;;;;;;;22.65;74.24;99487.69;5016130;28;20228;-65
2022/05/15 04:34:47;;;;;;;5.50;5.00;;;;;;;22.87;74.01;99485.13;5025812;28;20215;-65
2022/05/15 04:37:14;;;;;;;5.60;4.37;;;;;;;23.09;72.11;99491.25;5030155;28;20201;-65
2022/05/15 04:39:41;;;;;;;4.20;3.90;;;;;;;23.22;70.19;99477.06;5030970;28;20205;-65
2022/05/15 04:42:09;;;;;;;5.00;3.93;;;;;;;23.43;70.49;99488.41;5021975;28;20206;-65
2022/05/15 04:44:36;;;;;;;3.03;2.93;;;;;;;23.34;68.65;99488.31;5017839;28;20594;-65
2022/05/15 04:47:05;;;;;;;3.70;3.53;;;;;;;23.47;67.55;99502.91;5019763;28;20666;-65
2022/05/15 04:49:32;;;;;;;3.83;3.63;;;;;;;23.21;66.50;99503.31;5013425;28;20197;-66
2022/05/15 04:51:59;;;;;;;3.27;3.17;;;;;;;23.16;67.84;99500.25;5014771;28;20198;-66
2022/05/15 04:54:26;;;;;;;3.43;3.13;;;;;;;23.30;68.37;99497.34;5017701;28;20238;-66
2022/05/15 04:56:53;;;;;;;3.73;3.43;;;;;;;23.55;68.52;99504.91;5015701;28;20233;-66
2022/05/15 04:59:20;;;;;;;3.60;3.50;;;;;;;23.70;67.15;99501.03;5014464;28;20217;-66
2022/05/15 05:01:47;;;;;;;3.40;3.10;;;;;;;23.86;66.14;99498.81;5016995;28;20213;-66
2022/05/15 05:04:15;;;;;;;3.90;3.50;;;;;;;23.96;65.07;99491.00;5010902;28;20690;-66
2022/05/15 05:06:42;;;;;;;3.90;3.73;;;;;;;24.13;63.40;99500.09;5021259;28;20213;-66
2022/05/15 05:09:10;;;;;;;3.50;3.30;;;;;;;24.20;63.85;99509.91;5021910;28;20797;-66
2022/05/15 05:11:37;;;;;;;3.80;3.50;;;;;;;24.23;64.30;99487.91;5018921;28;20202;-66
2022/05/15 05:14:04;;;;;;;3.33;3.10;;;;;;;24.24;64.00;99505.25;5014370;28;20673;-66
2022/05/15 05:16:33;;;;;;;3.40;3.20;;;;;;;24.44;63.54;99505.22;5019412;28;20216;-66
2022/05/15 05:19:00;;;;;;;4.53;4.13;;;;;;;24.49;63.99;99504.84;5020537;28;20205;-66
2022/05/15 05:21:28;;;;;;;3.20;3.10;;;;;;;24.45;62.95;99508.69;5022954;28;20202;-66
2022/05/15 05:23:55;;;;;;;3.30;3.10;;;;;;;24.31;63.09;99511.63;5011853;28;20221;-65
2022/05/15 05:26:22;;;;;;;3.07;2.97;;;;;;;24.23;62.94;99508.84;5018528;28;20194;-66
2022/05/15 05:28:49;;;;;;;2.80;2.70;;;;;;;24.26;64.27;99513.84;5011905;28;20206;-66
2022/05/15 05:31:16;;;;;;;3.50;3.30;;;;;;;24.19;63.26;99505.66;5014198;28;20206;-66
2022/05/15 05:33:43;;;;;;;16.20;4.10;;;;;;;24.10;64.65;99510.81;5023239;28;20198;-66
2022/05/15 05:36:11;;;;;;;2.80;2.70;;;;;;;24.18;63.91;99505.78;5021554;28;20202;-66
2022/05/15 05:38:39;;;;;;;3.47;3.27;;;;;;;24.14;64.56;99509.59;5025228;28;20210;-66
2022/05/15 05:41:06;;;;;;;3.97;3.10;;;;;;;24.14;64.20;99504.38;5021375;28;20233;-65
2022/05/15 05:43:33;;;;;;;2.93;2.83;;;;;;;24.22;63.10;99505.41;5022507;28;20228;-66
2022/05/15 05:46:01;;;;;;;3.20;3.00;;;;;;;24.47;64.17;99506.75;5016253;28;20217;-66
2022/05/15 05:48:27;;;;;;;2.40;2.30;;;;;;;24.81;63.85;99505.53;5025083;28;20199;-66
2022/05/15 05:50:54;;;;;;;2.83;2.63;;;;;;;25.24;61.05;99507.00;5026882;28;20211;-66
2022/05/15 05:53:21;;;;;;;2.97;2.77;;;;;;;25.72;60.26;99518.38;5017490;28;20221;-66
2022/05/15 05:55:50;;;;;;;2.70;2.60;;;;;;;26.09;59.74;99503.53;5023378;28;20222;-66
2022/05/15 05:58:17;;;;;;;3.40;3.10;;;;;;;26.35;55.35;99522.16;5013197;28;20202;-66
2022/05/15 06:00:43;;;;;;;3.00;2.90;;;;;;;26.34;55.75;99510.00;5017904;28;20197;-67
2022/05/15 06:05:56;;;;;;;3.63;3.33;;;;;;;26.73;53.54;99510.66;5024221;28;20332;-67
2022/05/15 06:08:27;;;;;;;2.83;2.70;;;;;;;26.71;52.44;99502.09;5006278;28;20221;-66
2022/05/15 06:10:56;;;;;;;3.37;2.27;;;;;;;26.74;52.26;99509.69;5012177;28;20307;-66
2022/05/15 06:13:23;;;;;;;2.43;2.33;;;;;;;26.71;54.17;99507.38;5020314;28;20195;-66
2022/05/15 06:15:50;;;;;;;6.00;2.87;;;;;;;26.82;52.67;99507.19;5022299;28;20203;-66
2022/05/15 06:18:17;;;;;;;2.33;2.23;;;;;;;26.99;54.58;99500.31;5019964;28;20198;-66
2022/05/15 06:20:44;;;;;;;2.77;2.67;;;;;;;27.03;52.79;99502.50;5025753;28;20215;-66
2022/05/15 06:23:11;;;;;;;2.83;2.73;;;;;;;26.99;52.31;99498.50;5014285;28;20233;-66
2022/05/15 06:25:38;;;;;;;5.30;2.60;;;;;;;26.82;53.02;99493.22;5004687;28;20202;-66
2022/05/15 06:28:07;;;;;;;2.93;2.73;;;;;;;26.88;54.66;99493.44;5006960;28;20217;-65
2022/05/15 06:30:36;;;;;;;4.63;2.83;;;;;;;27.09;54.06;99486.13;5009314;28;20240;-66
2022/05/15 06:33:03;;;;;;;2.43;2.30;;;;;;;27.36;51.11;99498.41;5011117;28;20197;-66
2022/05/15 06:35:30;;;;;;;2.20;2.10;;;;;;;27.56;50.36;99494.66;5022010;28;20571;-66
2022/05/15 06:38:00;;;;;;;2.30;2.20;;;;;;;27.69;50.97;99488.97;5015733;28;20594;-66
2022/05/15 06:40:27;;;;;;;2.60;2.50;;;;;;;27.74;51.39;99486.72;5010457;28;20203;-61
2022/05/15 06:42:54;;;;;;;2.43;2.23;;;;;;;27.81;49.73;99487.78;5008589;28;20204;-60
2022/05/15 06:45:22;;;;;;;5.50;2.00;;;;;;;27.70;49.27;99490.66;5009631;28;20214;-61
2022/05/15 06:47:49;;;;;;;1.67;1.57;;;;;;;27.23;46.52;99487.41;5009968;28;20225;-60
2022/05/15 06:50:16;;;;;;;2.00;1.90;;;;;;;27.11;48.63;99484.16;5014471;28;20204;-60
2022/05/15 06:52:43;;;;;;;1.90;1.80;;;;;;;27.00;47.79;99481.75;5016910;28;20578;-60
2022/05/15 06:55:14;;;;;;;1.70;1.60;;;;;;;26.84;49.16;99470.22;5013714;28;20217;-60
2022/05/15 06:57:41;;;;;;;2.40;2.30;;;;;;;27.18;53.12;99484.38;5017835;28;20570;-60
2022/05/15 07:00:11;;;;;;;2.40;2.20;;;;;;;27.46;52.91;99487.81;5023117;28;20205;-60
2022/05/15 07:02:41;;;;;;;5.70;1.90;;;;;;;27.61;51.61;99488.94;5016825;28;20598;-60
2022/05/15 07:05:10;;;;;;;2.40;1.83;;;;;;;27.77;48.46;99490.88;5011019;28;20221;-60
2022/05/15 07:07:37;;;;;;;2.03;1.90;;;;;;;27.82;47.32;99492.06;5015581;28;20205;-60
2022/05/15 07:10:05;;;;;;;1.67;1.57;;;;;;;28.19;45.72;99496.28;5025019;28;20759;-60
2022/05/15 07:12:32;;;;;;;6.67;1.60;;;;;;;28.43;41.63;99491.16;5012703;28;20201;-60
2022/05/15 07:15:01;;;;;;;2.30;1.63;;;;;;;28.67;44.49;99486.00;5014014;28;20198;-60
2022/05/15 07:17:28;;;;;;;1.40;1.30;;;;;;;28.85;42.17;99494.66;5012866;28;20194;-59
2022/05/15 07:19:57;;;;;;;2.03;1.60;;;;;;;28.97;42.09;99503.94;5023374;28;20692;-60
2022/05/15 07:22:23;;;;;;;2.57;1.53;;;;;;;28.81;38.60;99503.88;5015249;28;20689;-63
2022/05/15 07:24:50;;;;;;;5.70;1.53;;;;;;;28.77;39.00;99497.25;5011882;28;20724;-60
2022/05/15 07:27:17;;;;;;;2.57;1.40;;;;;;;28.85;39.69;99497.31;5015397;28;20704;-60
2022/05/15 07:29:44;;;;;;;2.57;1.50;;;;;;;29.01;40.52;99502.63;5018564;28;20208;-60
2022/05/15 07:32:12;;;;;;;4.00;1.47;;;;;;;28.99;37.55;99501.94;5010444;28;20202;-60
2022/05/15 07:34:40;;;;;;;4.50;1.60;;;;;;;29.15;37.96;99483.50;5018020;28;20583;-60
2022/05/15 07:37:09;;;;;;;1.63;1.40;;;;;;;29.51;38.88;99499.09;5012937;28;20194;-60
2022/05/15 07:39:36;;;;;;;1.30;1.30;;;;;;;29.39;37.19;99503.06;5015983;28;20293;-60
2022/05/15 07:42:03;;;;;;;2.33;1.53;;;;;;;29.41;37.49;99501.06;5025665;28;20198;-61
2022/05/15 07:44:30;;;;;;;1.33;1.33;;;;;;;29.71;38.09;99503.06;5023683;28;20221;-61
2022/05/15 07:46:57;;;;;;;3.77;1.50;;;;;;;29.98;36.26;99500.13;5024950;28;20293;-60
2022/05/15 07:49:24;;;;;;;1.50;1.40;;;;;;;29.82;36.67;99500.09;5025913;28;20210;-61
2022/05/15 07:51:51;;;;;;;9.17;1.67;;;;;;;29.87;36.84;99500.44;5021837;28;20193;-61
2022/05/15 07:54:20;;;;;;;6.40;2.83;;;;;;;29.78;38.24;99482.09;5025136;28;20201;-60
2022/05/15 07:56:47;;;;;;;3.90;3.07;;;;;;;29.78;39.44;99498.78;5018050;28;20229;-61
2022/05/15 07:59:14;;;;;;;2.20;1.73;;;;;;;29.89;38.46;99501.09;5017177;28;20194;-61
2022/05/15 08:01:42;;;;;;;1.33;1.33;;;;;;;29.62;38.22;99499.63;5022172;28;20670;-60
2022/05/15 08:04:10;;;;;;;1.60;1.50;;;;;;;29.07;37.35;99404.31;5023574;28;20209;-60
2022/05/15 08:09:23;;;;;;;1.60;1.37;;;;;;;29.70;37.28;99511.97;5017698;28;20213;-61
2022/05/15 08:11:50;;;;;;;4.20;1.80;;;;;;;29.92;37.10;99511.34;5017864;28;20208;-60
2022/05/15 08:14:18;;;;;;;1.17;1.17;;;;;;;29.96;36.46;99510.03;5020244;28;20252;-61
2022/05/15 08:16:45;;;;;;;2.97;2.70;;;;;;;30.06;36.14;99512.47;5020807;28;20214;-60
2022/05/15 08:24:42;;;;;;;1.60;1.50;;;;;;;30.06;38.50;99510.66;5015317;28;20290;-61
2022/05/15 08:27:10;;;;;;;3.83;1.50;;;;;;;30.08;36.41;99521.88;5014985;28;20930;-61
2022/05/15 08:29:37;;;;;;;1.70;1.60;;;;;;;30.50;35.64;99511.06;5028414;28;20452;-60
2022/05/15 08:32:05;;;;;;;2.47;1.52;;;;;;;30.68;35.11;99508.22;5033573;28;20643;-61
2022/05/15 08:34:32;;;;;;;1.30;1.20;;;;;;;30.75;34.93;99514.47;5033892;28;20220;-61
2022/05/15 08:37:00;;;;;;;1.60;1.50;;;;;;;30.66;34.93;99504.94;5024578;28;20292;-61
2022/05/15 08:39:27;;;;;;;1.47;1.40;;;;;;;30.64;34.76;99517.47;5014074;28;20195;-61
2022/05/15 08:42:03;;;;;;;2.88;2.33;;;;;;;30.69;36.03;99520.47;5021898;28;20205;-61
2022/05/15 08:44:34;;;;;;;1.40;1.30;;;;;;;30.75;33.91;99522.41;5029098;28;20210;-61
2022/05/15 08:47:13;;;;;;;1.20;1.10;;;;;;;30.92;32.66;99502.78;5013592;28;20698;-60
2022/05/15 08:49:42;;;;;;;1.23;1.20;;;;;;;31.06;34.81;99522.44;5012644;28;20201;-61
2022/05/15 08:52:13;;;;;;;1.40;1.40;;;;;;;31.07;35.07;99508.22;5022282;28;20216;-61
2022/05/15 08:54:50;;;;;;;1.98;1.48;;;;;;;31.27;35.57;99519.19;5022774;28;20202;-61
2022/05/15 08:57:27;;;;;;;1.13;1.13;;;;;;;31.33;31.17;99499.94;5013227;28;20244;-61
2022/05/15 08:59:57;;;;;;;1.42;1.42;;;;;;;31.18;31.96;99521.06;5013407;28;20736;-61
2022/05/15 09:02:25;;;;;;;0.90;0.90;;;;;;;31.22;33.80;99511.75;5021561;28;20197;-61
2022/05/15 09:04:53;;;;;;;1.20;1.20;;;;;;;31.12;32.42;99516.44;5013080;28;20218;-61
2022/05/15 09:07:33;;;;;;;1.33;1.33;;;;;;;31.27;34.58;99514.72;5013241;28;20205;-61
2022/05/15 09:10:11;;;;;;;3.08;1.38;;;;;;;31.47;33.07;99507.13;5013281;28;20205;-61
2022/05/15 09:12:43;;;;;;;3.38;1.20;;;;;;;31.48;30.93;99511.41;5016924;28;20216;-60
2022/05/15 09:15:13;;;;;;;1.83;1.27;;;;;;;31.59;31.68;99508.41;5017199;28;20206;-61
2022/05/15 09:17:46;;;;;;;1.20;1.10;;;;;;;31.58;32.41;99512.03;5014310;28;20681;-60
2022/05/15 09:20:16;;;;;;;2.00;1.23;;;;;;;31.66;31.37;99507.50;5017807;28;20201;-61
2022/05/15 09:22:47;;;;;;;1.05;1.05;;;;;;;31.83;30.05;99505.53;5025222;28;20198;-61
2022/05/15 09:25:18;;;;;;;1.95;1.42;;;;;;;31.56;30.10;99498.16;5017689;28;20210;-61
2022/05/15 09:28:02;;;;;;;1.60;1.50;;;;;;;31.71;31.86;99501.66;5016769;28;20197;-61
2022/05/15 09:30:37;;;;;;;1.20;1.20;;;;;;;31.79;33.55;99498.94;5012566;28;20924;-61
2022/05/15 09:33:05;;;;;;;1.42;1.30;;;;;;;31.69;31.76;99472.69;5012424;28;20197;-61
2022/05/15 09:35:38;;;;;;;1.55;1.45;;;;;;;31.82;31.69;99482.69;5018847;28;20660;-61
2022/05/15 09:43:50;;;;;;;2.72;1.35;;;;;;;31.98;30.43;99484.34;5022398;28;20588;-61
2022/05/15 09:46:20;;;;;;;1.17;1.17;;;;;;;32.18;29.40;99499.56;5032179;28;20695;-61
2022/05/15 09:48:53;;;;;;;1.10;1.10;;;;;;;31.92;27.86;99499.16;5032249;28;20201;-61
2022/05/15 09:51:30;;;;;;;1.20;1.20;;;;;;;31.84;30.16;99495.75;5024183;28;20197;-61
2022/05/15 09:53:58;;;;;;;2.45;0.93;;;;;;;31.86;28.71;99486.59;5024253;28;20197;-61
2022/05/15 09:56:30;;;;;;;2.00;1.42;;;;;;;32.03;29.45;99485.44;5016120;28;20221;-61
2022/05/15 09:59:02;;;;;;;1.25;1.25;;;;;;;32.10;27.19;99483.75;5009519;28;20789;-61
2022/05/15 10:01:36;;;;;;;2.53;1.20;;;;;;;32.18;28.59;99478.34;5011999;28;20205;-61
2022/05/15 10:04:05;;;;;;;1.10;1.10;;;;;;;32.34;29.25;99474.72;5009885;28;20279;-61
2022/05/15 10:06:37;;;;;;;2.38;2.17;;;;;;;32.50;31.11;99469.22;5020108;28;20197;-61
2022/05/15 10:09:14;;;;;;;2.20;1.30;;;;;;;32.70;29.83;99477.41;5031898;28;20201;-61
2022/05/15 10:11:45;;;;;;;1.95;1.15;;;;;;;32.30;29.20;99475.25;5021241;28;20593;-61
2022/05/15 10:14:28;;;;;;;1.20;1.10;;;;;;;32.35;28.34;99486.13;5016328;28;20208;-61
2022/05/15 10:16:58;;;;;;;1.67;0.93;;;;;;;32.43;28.81;99480.75;5010213;28;20202;-61
2022/05/15 10:19:32;;;;;;;2.38;1.30;;;;;;;32.64;29.75;99478.16;5013371;28;20209;-61
2022/05/15 10:22:11;;;;;;;1.15;1.10;;;;;;;32.68;27.75;99474.97;5011752;28;20198;-61
2022/05/15 10:24:44;;;;;;;1.67;1.58;;;;;;;32.66;29.57;99474.34;5012888;28;20224;-61
2022/05/15 10:27:17;;;;;;;0.98;0.98;;;;;;;32.58;25.88;99473.59;5010966;28;20194;-61
2022/05/15 10:29:51;;;;;;;1.40;1.38;;;;;;;32.53;27.84;99471.50;5011476;28;20212;-61
2022/05/15 10:32:26;;;;;;;1.17;1.10;;;;;;;32.49;28.31;99470.22;5020144;28;20194;-61
2022/05/15 10:34:53;;;;;;;2.53;1.10;;;;;;;32.46;27.50;99459.13;5017547;28;20188;-61
2022/05/15 10:37:39;;;;;;;1.42;1.42;;;;;;;32.06;26.12;99466.53;5023113;28;20205;-61
2022/05/15 10:40:27;;;;;;;1.10;1.02;;;;;;;32.04;27.23;99470.38;5029092;28;20689;-61
2022/05/15 10:43:08;;;;;;;1.17;1.17;;;;;;;31.93;29.10;99458.34;5028118;28;20688;-61
2022/05/15 10:45:46;;;;;;;1.23;1.23;;;;;;;32.07;31.22;99462.06;5017252;28;20249;-61
2022/05/15 10:48:34;;;;;;;0.90;0.90;;;;;;;32.27;29.32;99465.00;5019282;28;20212;-61
2022/05/15 10:51:06;;;;;;;2.53;1.27;;;;;;;32.37;26.50;99460.25;5020244;28;20263;-61
2022/05/15 10:59:46;;;;;;;1.05;1.05;;;;;;;32.47;28.25;99450.19;5031017;28;20211;-61
2022/05/15 11:02:36;;;;;;;1.30;1.30;;;;;;;32.53;27.10;99438.81;5020824;28;20202;-61
2022/05/15 11:05:10;;;;;;;1.40;1.40;;;;;;;32.62;29.24;99443.03;5027507;28;20666;-61
2022/05/15 11:07:45;;;;;;;1.10;1.10;;;;;;;32.64;28.86;99439.19;5011494;28;20202;-61
2022/05/15 11:10:18;;;;;;;1.17;1.17;;;;;;;32.75;31.51;99443.19;5019936;28;20230;-61
2022/05/15 11:12:54;;;;;;;2.10;1.27;;;;;;;32.82;29.50;99452.06;5021913;28;20669;-61
2022/05/15 11:15:39;;;;;;;1.45;1.35;;;;;;;32.78;29.92;99437.50;5009489;28;20205;-60
2022/05/15 11:18:33;;;;;;;1.08;0.90;;;;;;;32.77;29.26;99441.16;5012048;28;20637;-61
2022/05/15 11:21:06;;;;;;;0.90;0.90;;;;;;;32.78;29.95;99413.59;5016151;28;20243;-61
2022/05/15 11:23:41;;;;;;;1.20;1.10;;;;;;;32.92;28.97;99431.34;5014645;28;20197;-61
2022/05/15 11:26:15;;;;;;;1.27;1.20;;;;;;;32.95;29.00;99425.66;5022347;28;20217;-61
2022/05/15 11:28:50;;;;;;;1.20;1.20;;;;;;;32.99;31.17;99426.88;5019111;28;20201;-61
2022/05/15 11:31:21;;;;;;;1.00;1.00;;;;;;;32.79;28.20;99420.56;5030590;28;20204;-61
2022/05/15 11:33:52;;;;;;;1.08;1.08;;;;;;;32.73;28.25;99424.78;5023170;28;20201;-61
2022/05/15 11:36:35;;;;;;;1.38;1.38;;;;;;;32.77;29.01;99430.53;5016575;28;20204;-61
2022/05/15 11:39:06;;;;;;;1.65;1.35;;;;;;;32.55;31.43;99415.53;5010773;28;20237;-61
2022/05/15 11:41:41;;;;;;;1.55;1.55;;;;;;;32.55;30.24;99426.16;5013088;28;20244;-61
2022/05/15 11:44:12;;;;;;;1.20;1.20;;;;;;;32.63;31.33;99421.63;5023660;28;20232;-61
2022/05/15 11:47:01;;;;;;;1.23;1.23;;;;;;;32.64;29.34;99425.06;5010663;28;20234;-61
2022/05/15 11:49:37;;;;;;;1.20;1.20;;;;;;;32.35;28.13;99414.47;5019817;28;20212;-61
2022/05/15 11:52:29;;;;;;;1.58;1.25;;;;;;;32.09;28.29;99421.09;5021754;28;20194;-61
2022/05/15 11:54:59;;;;;;;1.50;1.40;;;;;;;31.82;28.38;99415.56;5010543;28;20613;-61
2022/05/15 11:57:35;;;;;;;1.58;1.15;;;;;;;31.65;30.78;99412.25;5010071;28;20734;-61
2022/05/15 12:00:06;;;;;;;1.27;1.17;;;;;;;31.54;29.04;99402.91;5016042;28;20267;-61
2022/05/15 12:02:51;;;;;;;1.65;1.55;;;;;;;31.49;28.94;99417.66;5029953;28;20198;-61
2022/05/15 12:05:36;;;;;;;1.30;1.23;;;;;;;31.66;29.48;99401.47;5023352;28;20691;-61
2022/05/15 12:08:28;;;;;;;1.95;1.75;;;;;;;31.80;31.38;99413.09;5011477;28;20284;-61
2022/05/15 12:10:58;;;;;;;1.35;1.20;;;;;;;31.86;31.23;99404.41;5012813;28;20213;-61